createdAt,value
2023-05-20T00:00:41.600Z,80.47
2023-05-20T00:02:16.072Z,80.41
2023-05-20T00:03:49.262Z,80.68
2023-05-20T00:05:24.701Z,80.58
2023-05-20T00:07:05.283Z,80.53
2023-05-20T00:08:26.920Z,80.71
2023-05-20T00:10:00.837Z,80.70
2023-05-20T00:11:53.889Z,80.84
2023-05-20T00:13:47.682Z,80.92
2023-05-20T00:15:12.460Z,80.84
2023-05-20T00:16:56.047Z,80.83
2023-05-20T00:18:18.033Z,80.81
2023-05-20T00:19:53.712Z,80.83
2023-05-20T00:21:29.952Z,80.52
2023-05-20T00:23:15.245Z,80.61
2023-05-20T00:24:55.756Z,80.69
2023-05-20T00:26:42.731Z,80.61
2023-05-20T00:28:28.070Z,80.47
2023-05-20T00:30:04.230Z,80.50
2023-05-20T00:31:49.475Z,80.55
2023-05-20T00:33:19.304Z,80.58
2023-05-20T00:34:55.041Z,80.37
2023-05-20T00:36:46.465Z,80.56
2023-05-20T00:38:31.673Z,80.42
2023-05-20T00:40:06.198Z,80.46
2023-05-20T00:41:50.826Z,80.48
2023-05-20T00:43:27.199Z,80.44
2023-05-20T00:45:03.188Z,80.49
2023-05-20T00:46:48.393Z,80.64
2023-05-20T00:48:13.510Z,80.51
2023-05-20T00:49:59.391Z,80.60
2023-05-20T00:51:46.129Z,80.70
2023-05-20T00:53:35.693Z,80.76
2023-05-20T00:55:16.883Z,80.85
2023-05-20T00:56:53.084Z,80.82
2023-05-20T00:58:38.197Z,80.88
2023-05-20T01:00:23.786Z,81.07
2023-05-20T01:01:59.555Z,80.73
2023-05-20T01:03:33.379Z,80.73
2023-05-20T01:05:14.570Z,80.68
2023-05-20T01:06:55.255Z,80.47
2023-05-20T01:08:28.992Z,80.61
2023-05-20T01:10:03.224Z,80.61
2023-05-20T01:11:48.245Z,80.54
2023-05-20T01:13:22.297Z,80.47
2023-05-20T01:14:44.690Z,80.48
2023-05-20T01:16:14.023Z,80.49
2023-05-20T01:17:46.135Z,80.58
2023-05-20T01:19:10.710Z,80.44
2023-05-20T01:20:44.038Z,80.58
2023-05-20T01:22:20.886Z,80.67
2023-05-20T01:24:06.097Z,80.64
2023-05-20T01:25:29.844Z,80.54
2023-05-20T01:26:59.054Z,80.72
2023-05-20T01:28:33.301Z,80.54
2023-05-20T01:29:58.181Z,80.64
2023-05-20T01:31:42.068Z,80.77
2023-05-20T01:33:07.103Z,80.95
2023-05-20T01:34:52.133Z,80.89
2023-05-20T01:36:38.014Z,81.03
2023-05-20T01:38:09.433Z,81.08
2023-05-20T01:39:47.002Z,81.00
2023-05-20T01:41:20.795Z,80.91
2023-05-20T01:43:05.924Z,80.93
2023-05-20T01:44:47.010Z,81.13
2023-05-20T01:46:18.748Z,81.20
2023-05-20T01:47:50.851Z,81.11
2023-05-20T01:49:22.837Z,81.33
2023-05-20T01:50:56.238Z,81.14
2023-05-20T01:52:32.132Z,81.19
2023-05-20T01:54:07.851Z,81.42
2023-05-20T01:55:41.541Z,81.17
2023-05-20T01:57:22.505Z,81.28
2023-05-20T01:58:53.298Z,81.29
2023-05-20T02:00:48.012Z,81.29
2023-05-20T02:02:24.697Z,81.24
2023-05-20T02:03:46.916Z,81.20
2023-05-20T02:05:08.955Z,81.35
2023-05-20T02:06:30.638Z,81.28
2023-05-20T02:08:16.090Z,81.32
2023-05-20T02:09:46.114Z,81.26
2023-05-20T02:11:22.035Z,81.16
2023-05-20T02:12:47.829Z,81.49
2023-05-20T02:14:19.155Z,81.39
2023-05-20T02:15:51.934Z,81.27
2023-05-20T02:17:37.420Z,81.10
2023-05-20T02:19:24.708Z,80.80
2023-05-20T02:21:10.242Z,80.91
2023-05-20T02:22:43.714Z,80.95
2023-05-20T02:24:29.322Z,80.74
2023-05-20T02:26:05.144Z,80.80
2023-05-20T02:27:38.597Z,80.70
2023-05-20T02:29:23.984Z,80.74
2023-05-20T02:30:52.835Z,80.77
2023-05-20T02:32:28.933Z,80.62
2023-05-20T02:34:15.961Z,80.57
2023-05-20T02:36:03.316Z,80.74
2023-05-20T02:37:48.084Z,80.73
2023-05-20T02:39:33.222Z,80.57
2023-05-20T02:41:11.998Z,80.43
2023-05-20T02:42:52.805Z,80.66
2023-05-20T02:44:24.568Z,80.42
2023-05-20T02:46:10.131Z,80.59
2023-05-20T02:47:39.752Z,80.32
2023-05-20T02:49:04.285Z,80.06
2023-05-20T02:50:40.133Z,79.95
2023-05-20T02:52:25.401Z,79.99
2023-05-20T02:54:19.223Z,80.13
2023-05-20T02:55:52.140Z,79.92
2023-05-20T02:57:25.727Z,79.60
2023-05-20T02:59:06.854Z,79.69
2023-05-20T03:00:31.291Z,79.54
2023-05-20T03:01:57.566Z,79.58
2023-05-20T03:03:41.567Z,79.35
2023-05-20T03:05:13.670Z,79.50
2023-05-20T03:06:58.927Z,79.51
2023-05-20T03:08:34.691Z,79.41
2023-05-20T03:10:10.360Z,79.24
2023-05-20T03:11:52.148Z,79.12
2023-05-20T03:13:16.712Z,79.34
2023-05-20T03:14:55.324Z,79.19
2023-05-20T03:16:37.489Z,79.03
2023-05-20T03:18:31.954Z,78.95
2023-05-20T03:20:17.148Z,79.05
2023-05-20T03:21:53.085Z,79.06
2023-05-20T03:23:35.437Z,78.98
2023-05-20T03:25:09.134Z,78.69
2023-05-20T03:26:43.040Z,78.61
2023-05-20T03:28:32.979Z,78.36
2023-05-20T03:30:18.493Z,78.54
2023-05-20T03:32:05.090Z,78.71
2023-05-20T03:33:50.149Z,78.97
2023-05-20T03:35:26.122Z,79.43
2023-05-20T03:37:02.006Z,79.09
2023-05-20T03:38:36.070Z,79.04
2023-05-20T03:40:24.584Z,79.12
2023-05-20T03:41:49.112Z,79.02
2023-05-20T03:43:34.495Z,79.11
2023-05-20T03:45:20.015Z,79.15
2023-05-20T03:47:08.519Z,78.90
2023-05-20T03:48:53.265Z,79.13
2023-05-20T03:50:26.909Z,79.11
2023-05-20T03:51:56.223Z,79.03
2023-05-20T03:53:29.802Z,79.13
2023-05-20T03:55:10.855Z,78.90
2023-05-20T03:56:55.266Z,78.79
2023-05-20T03:58:51.530Z,78.91
2023-05-20T04:00:27.810Z,79.05
2023-05-20T04:02:01.644Z,79.02
2023-05-20T04:03:54.902Z,79.11
2023-05-20T04:05:49.020Z,79.23
2023-05-20T04:07:25.931Z,79.31
2023-05-20T04:09:00.165Z,79.42
2023-05-20T04:10:36.078Z,79.23
2023-05-20T04:12:09.691Z,79.05
2023-05-20T04:13:46.138Z,78.72
2023-05-20T04:15:20.121Z,78.87
2023-05-20T04:17:02.113Z,78.81
2023-05-20T04:18:39.084Z,78.84
2023-05-20T04:20:16.553Z,78.77
2023-05-20T04:21:49.535Z,78.92
2023-05-20T04:23:35.638Z,79.09
2023-05-20T04:25:15.498Z,79.17
2023-05-20T04:26:51.559Z,79.35
2023-05-20T04:28:28.130Z,79.33
2023-05-20T04:30:02.444Z,79.44
2023-05-20T04:31:38.572Z,79.30
2023-05-20T04:33:24.157Z,79.29
2023-05-20T04:35:09.048Z,78.88
2023-05-20T04:36:53.336Z,78.99
2023-05-20T04:38:16.404Z,79.00
2023-05-20T04:40:09.688Z,78.95
2023-05-20T04:41:54.690Z,78.83
2023-05-20T04:43:45.750Z,78.97
2023-05-20T04:45:26.435Z,78.91
2023-05-20T04:46:59.809Z,78.89
2023-05-20T04:48:33.727Z,78.76
2023-05-20T04:50:14.741Z,78.65
2023-05-20T04:51:55.694Z,78.37
2023-05-20T04:53:20.110Z,78.57
2023-05-20T04:55:00.791Z,78.21
2023-05-20T04:56:34.150Z,78.07
2023-05-20T04:58:20.103Z,77.86
2023-05-20T05:00:05.806Z,77.72
2023-05-20T05:01:42.539Z,77.80
2023-05-20T05:03:07.562Z,77.99
2023-05-20T05:04:52.422Z,77.87
2023-05-20T05:06:37.787Z,78.06
2023-05-20T05:08:01.987Z,77.95
2023-05-20T05:09:37.915Z,77.57
2023-05-20T05:11:11.246Z,77.89
2023-05-20T05:12:44.584Z,77.34
2023-05-20T05:14:29.855Z,77.24
2023-05-20T05:15:56.084Z,77.25
2023-05-20T05:17:32.973Z,77.07
2023-05-20T05:19:09.433Z,76.97
2023-05-20T05:20:51.303Z,76.93
2023-05-20T05:22:37.126Z,77.30
2023-05-20T05:24:18.041Z,77.75
2023-05-20T05:26:11.029Z,77.55
2023-05-20T05:27:52.965Z,77.35
2023-05-20T05:29:27.393Z,76.73
2023-05-20T05:31:21.399Z,76.64
2023-05-20T05:32:56.896Z,77.09
2023-05-20T05:34:21.609Z,76.75
2023-05-20T05:36:13.485Z,76.28
2023-05-20T05:37:58.377Z,76.22
2023-05-20T05:39:25.081Z,76.30
2023-05-20T05:41:00.276Z,76.41
2023-05-20T05:42:22.503Z,76.91
2023-05-20T05:43:44.664Z,76.62
2023-05-20T05:45:30.834Z,76.10
2023-05-20T05:47:15.213Z,76.08
2023-05-20T05:48:51.056Z,75.82
2023-05-20T05:50:28.499Z,75.54
2023-05-20T05:52:02.763Z,75.27
2023-05-20T05:53:47.580Z,75.18
2023-05-20T05:55:28.920Z,75.18
2023-05-20T05:57:09.913Z,75.32
2023-05-20T05:58:51.300Z,75.02
2023-05-20T06:00:33.032Z,74.95
2023-05-20T06:02:18.376Z,74.53
2023-05-20T06:04:13.001Z,74.44
2023-05-20T06:05:48.717Z,74.70
2023-05-20T06:07:20.440Z,74.27
2023-05-20T06:08:56.459Z,74.32
2023-05-20T06:10:25.605Z,74.02
2023-05-20T06:12:16.448Z,73.76
2023-05-20T06:14:01.621Z,73.51
2023-05-20T06:15:46.610Z,73.25
2023-05-20T06:17:22.475Z,72.81
2023-05-20T06:18:55.857Z,72.42
2023-05-20T06:20:29.334Z,72.27
2023-05-20T06:22:10.501Z,72.65
2023-05-20T06:23:38.356Z,72.51
2023-05-20T06:25:14.998Z,72.55
2023-05-20T06:27:01.326Z,72.56
2023-05-20T06:28:26.089Z,72.46
2023-05-20T06:29:59.671Z,72.44
2023-05-20T06:31:48.298Z,72.23
2023-05-20T06:33:29.859Z,71.49
2023-05-20T06:35:18.293Z,70.97
2023-05-20T06:36:47.876Z,71.27
2023-05-20T06:38:09.984Z,70.98
2023-05-20T06:39:54.538Z,71.20
2023-05-20T06:41:39.796Z,70.78
2023-05-20T06:43:13.824Z,70.85
2023-05-20T06:44:54.890Z,70.52
2023-05-20T06:46:39.770Z,70.30
2023-05-20T06:48:29.212Z,69.47
2023-05-20T06:50:14.982Z,69.79
2023-05-20T06:51:44.131Z,69.82
2023-05-20T06:53:08.720Z,69.45
2023-05-20T06:54:42.721Z,69.32
2023-05-20T06:56:08.526Z,68.53
2023-05-20T06:57:42.005Z,68.66
2023-05-20T06:59:15.332Z,68.62
2023-05-20T07:00:37.873Z,68.52
2023-05-20T07:02:02.119Z,68.28
2023-05-20T07:03:55.821Z,68.10
2023-05-20T07:05:31.733Z,68.32
2023-05-20T07:07:12.470Z,67.79
2023-05-20T07:08:36.709Z,67.51
2023-05-20T07:10:10.755Z,67.85
2023-05-20T07:11:55.759Z,68.27
2023-05-20T07:13:31.842Z,67.77
2023-05-20T07:14:55.876Z,67.90
2023-05-20T07:16:32.396Z,67.91
2023-05-20T07:17:59.135Z,67.89
2023-05-20T07:19:43.109Z,67.71
2023-05-20T07:21:19.297Z,67.35
2023-05-20T07:23:15.665Z,67.48
2023-05-20T07:24:59.550Z,67.08
2023-05-20T07:26:36.110Z,67.82
2023-05-20T07:28:00.485Z,67.75
2023-05-20T07:29:24.473Z,67.68
2023-05-20T07:31:10.395Z,67.27
2023-05-20T07:33:00.776Z,67.02
2023-05-20T07:34:45.690Z,67.40
2023-05-20T07:36:26.976Z,67.55
2023-05-20T07:37:54.361Z,67.43
2023-05-20T07:39:27.805Z,67.65
2023-05-20T07:41:08.590Z,67.45
2023-05-20T07:42:41.767Z,66.90
2023-05-20T07:44:12.565Z,66.93
2023-05-20T07:45:49.142Z,66.85
2023-05-20T07:47:23.292Z,66.98
2023-05-20T07:48:49.750Z,66.72
2023-05-20T07:50:23.870Z,66.05
2023-05-20T07:51:49.174Z,66.18
2023-05-20T07:53:23.082Z,65.59
2023-05-20T07:54:56.837Z,65.01
2023-05-20T07:56:30.433Z,65.14
2023-05-20T07:58:03.866Z,65.74
2023-05-20T07:59:39.090Z,64.97
2023-05-20T08:01:24.642Z,65.13
2023-05-20T08:02:58.004Z,65.69
2023-05-20T08:04:40.342Z,65.46
2023-05-20T08:06:14.150Z,65.19
2023-05-20T08:07:47.404Z,65.28
2023-05-20T08:09:21.727Z,65.62
2023-05-20T08:11:09.443Z,65.15
2023-05-20T08:12:32.061Z,65.22
2023-05-20T08:14:17.325Z,64.73
2023-05-20T08:15:56.982Z,63.67
2023-05-20T08:17:30.390Z,63.76
2023-05-20T08:19:03.940Z,63.34
2023-05-20T08:20:31.630Z,63.10
2023-05-20T08:22:08.398Z,62.32
2023-05-20T08:23:56.826Z,62.02
2023-05-20T08:25:33.681Z,61.73
2023-05-20T08:27:16.274Z,62.05
2023-05-20T08:28:49.356Z,61.40
2023-05-20T08:30:26.113Z,60.33
2023-05-20T08:31:58.084Z,60.79
2023-05-20T08:33:43.522Z,60.31
2023-05-20T08:35:08.033Z,59.99
2023-05-20T08:36:34.813Z,61.11
2023-05-20T08:38:08.736Z,60.87
2023-05-20T08:39:49.396Z,59.78
2023-05-20T08:41:25.509Z,60.16
2023-05-20T08:42:59.325Z,60.57
2023-05-20T08:44:23.994Z,60.71
2023-05-20T08:46:09.388Z,61.04
2023-05-20T08:47:46.148Z,61.04
2023-05-20T08:49:31.652Z,61.59
2023-05-20T08:51:02.868Z,61.82
2023-05-20T08:52:38.713Z,61.89
2023-05-20T08:54:19.159Z,61.40
2023-05-20T08:55:42.725Z,60.98
2023-05-20T08:57:12.168Z,61.25
2023-05-20T08:59:02.082Z,60.74
2023-05-20T09:00:47.385Z,60.63
2023-05-20T09:02:23.245Z,60.81
2023-05-20T09:03:45.255Z,60.75
2023-05-20T09:05:21.237Z,61.12
2023-05-20T09:07:01.287Z,61.34
2023-05-20T09:08:27.630Z,60.96
2023-05-20T09:10:03.311Z,60.88
2023-05-20T09:11:25.237Z,60.59
2023-05-20T09:12:46.843Z,60.26
2023-05-20T09:17:25.486Z,60.34
2023-05-20T09:18:49.931Z,60.43
2023-05-20T09:20:32.817Z,60.88
2023-05-20T09:22:05.186Z,60.58
2023-05-20T09:23:30.727Z,60.65
2023-05-20T09:25:04.253Z,60.54
2023-05-20T09:26:40.502Z,60.81
2023-05-20T09:28:14.920Z,60.98
2023-05-20T09:30:00.414Z,61.30
2023-05-20T09:31:45.675Z,60.77
2023-05-20T09:33:20.794Z,60.26
2023-05-20T09:34:45.511Z,60.10
2023-05-20T09:36:10.651Z,59.86
2023-05-20T09:37:56.198Z,60.57
2023-05-20T09:39:32.390Z,60.06
2023-05-20T09:40:56.233Z,60.07
2023-05-20T09:42:18.184Z,60.09
2023-05-20T09:43:42.774Z,60.03
2023-05-20T09:45:16.215Z,59.51
2023-05-20T09:46:40.613Z,59.36
2023-05-20T09:48:05.021Z,59.34
2023-05-20T09:49:46.093Z,59.74
2023-05-20T09:51:08.282Z,59.75
2023-05-20T09:52:41.870Z,58.65
2023-05-20T09:54:03.942Z,58.50
2023-05-20T09:55:39.821Z,58.19
2023-05-20T09:57:12.155Z,57.74
2023-05-20T09:58:45.678Z,57.92
2023-05-20T10:00:22.265Z,57.18
2023-05-20T10:01:54.030Z,57.79
2023-05-20T10:03:30.477Z,56.70
2023-05-20T10:05:04.257Z,56.39
2023-05-20T10:06:38.210Z,56.53
2023-05-20T10:08:00.394Z,55.69
2023-05-20T10:09:31.932Z,56.09
2023-05-20T10:11:14.873Z,56.19
2023-05-20T10:12:36.336Z,55.73
2023-05-20T10:13:58.139Z,56.62
2023-05-20T10:15:43.239Z,56.38
2023-05-20T10:17:09.098Z,56.07
2023-05-20T10:18:31.447Z,55.21
2023-05-20T10:19:55.541Z,54.79
2023-05-20T10:21:24.771Z,54.66
2023-05-20T10:22:48.671Z,55.72
2023-05-20T10:24:22.251Z,55.78
2023-05-20T10:25:43.799Z,54.39
2023-05-20T10:27:06.432Z,54.76
2023-05-20T10:28:39.764Z,55.00
2023-05-20T10:30:12.986Z,55.69
2023-05-20T10:31:46.840Z,55.59
2023-05-20T10:33:20.921Z,55.37
2023-05-20T10:35:06.136Z,55.08
2023-05-20T10:36:41.439Z,54.69
2023-05-20T10:38:30.432Z,54.80
2023-05-20T10:39:59.960Z,54.38
2023-05-20T10:41:29.500Z,54.62
2023-05-20T10:43:01.061Z,54.68
2023-05-20T10:44:36.638Z,55.37
2023-05-20T10:46:34.928Z,55.45
2023-05-20T10:48:19.202Z,55.66
2023-05-20T10:49:41.216Z,56.05
2023-05-20T10:51:05.945Z,56.53
2023-05-20T10:52:59.835Z,57.53
2023-05-20T10:54:24.095Z,58.09
2023-05-20T10:55:55.799Z,57.73
2023-05-20T10:57:29.411Z,57.09
2023-05-20T10:58:50.755Z,57.25
2023-05-20T11:00:24.520Z,57.14
2023-05-20T11:01:53.592Z,56.76
2023-05-20T11:03:18.344Z,56.86
2023-05-20T11:05:04.210Z,57.00
2023-05-20T11:06:27.235Z,57.02
2023-05-20T11:08:00.445Z,57.08
2023-05-20T11:09:31.899Z,57.31
2023-05-20T11:11:13.342Z,57.33
2023-05-20T11:12:58.572Z,57.92
2023-05-20T11:14:35.122Z,57.95
2023-05-20T11:15:59.146Z,58.22
2023-05-20T11:17:21.347Z,57.99
2023-05-20T11:18:58.061Z,57.92
2023-05-20T11:20:20.270Z,57.90
2023-05-20T11:21:53.750Z,57.68
2023-05-20T11:23:23.721Z,57.36
2023-05-20T11:25:08.778Z,58.54
2023-05-20T11:26:45.500Z,59.00
2023-05-20T11:28:27.321Z,58.29
2023-05-20T11:29:56.205Z,58.40
2023-05-20T11:31:37.788Z,58.39
2023-05-20T11:33:23.197Z,57.38
2023-05-20T11:34:47.902Z,58.30
2023-05-20T11:36:27.811Z,58.14
2023-05-20T11:37:52.535Z,56.87
2023-05-20T11:39:28.879Z,54.82
2023-05-20T11:40:53.415Z,54.20
2023-05-20T11:42:38.668Z,52.62
2023-05-20T11:44:13.549Z,50.31
2023-05-20T11:45:47.159Z,50.27
2023-05-20T11:47:32.481Z,50.12
2023-05-20T11:49:17.994Z,50.59
2023-05-20T11:50:40.640Z,50.15
2023-05-20T11:52:25.654Z,51.18
2023-05-20T11:53:49.609Z,51.24
2023-05-20T11:55:11.896Z,51.01
2023-05-20T11:56:45.376Z,51.39
2023-05-20T11:58:07.674Z,51.40
2023-05-20T11:59:31.624Z,51.42
2023-05-20T12:01:22.275Z,51.66
2023-05-20T12:03:11.954Z,51.56
2023-05-20T12:04:45.574Z,51.61
2023-05-20T12:06:07.330Z,51.35
2023-05-20T12:07:34.208Z,51.20
2023-05-20T12:09:09.745Z,50.89
2023-05-20T12:10:34.294Z,50.89
2023-05-20T12:12:17.256Z,50.01
2023-05-20T12:13:39.393Z,49.76
2023-05-20T12:15:26.430Z,50.15
2023-05-20T12:16:59.884Z,50.23
2023-05-20T12:18:33.858Z,49.85
2023-05-20T12:19:56.015Z,49.59
2023-05-20T12:21:29.840Z,49.52
2023-05-20T12:22:51.482Z,50.70
2023-05-20T12:24:15.542Z,49.41
2023-05-20T12:25:37.426Z,48.90
2023-05-20T12:27:01.359Z,48.73
2023-05-20T12:28:25.707Z,46.75
2023-05-20T12:30:11.477Z,47.08
2023-05-20T12:31:35.052Z,46.53
2023-05-20T12:32:57.379Z,46.81
2023-05-20T12:34:20.395Z,46.74
2023-05-20T12:35:44.573Z,47.25
2023-05-20T12:37:13.638Z,47.69
2023-05-20T12:38:36.121Z,47.06
2023-05-20T12:40:16.845Z,47.37
2023-05-20T12:41:50.338Z,48.12
2023-05-20T12:43:12.366Z,47.84
2023-05-20T12:44:34.291Z,47.46
2023-05-20T12:46:09.985Z,46.97
2023-05-20T12:47:50.727Z,46.84
2023-05-20T12:49:24.657Z,46.10
2023-05-20T12:51:00.538Z,46.48
2023-05-20T12:52:41.657Z,46.51
2023-05-20T12:54:03.517Z,45.89
2023-05-20T12:55:27.522Z,45.76
2023-05-20T12:57:01.163Z,45.56
2023-05-20T12:58:34.683Z,46.08
2023-05-20T13:00:01.418Z,45.53
2023-05-20T13:01:25.740Z,44.68
2023-05-20T13:02:59.283Z,44.41
2023-05-20T13:04:32.737Z,44.89
2023-05-20T13:06:05.736Z,44.66
2023-05-20T13:07:29.891Z,45.38
2023-05-20T13:08:54.240Z,44.83
2023-05-20T13:10:27.796Z,44.34
2023-05-20T13:11:49.681Z,43.40
2023-05-20T13:13:28.809Z,42.92
2023-05-20T13:15:06.625Z,42.23
2023-05-20T13:16:39.966Z,41.58
2023-05-20T13:18:15.687Z,41.41
2023-05-20T13:19:49.400Z,40.96
2023-05-20T13:21:25.356Z,39.98
2023-05-20T13:22:46.926Z,39.96
2023-05-20T13:24:09.141Z,39.84
2023-05-20T13:25:42.872Z,40.39
2023-05-20T13:27:14.376Z,39.22
2023-05-20T13:28:36.941Z,39.53
2023-05-20T13:30:06.180Z,40.47
2023-05-20T13:31:40.050Z,40.39
2023-05-20T13:33:04.183Z,42.24
2023-05-20T13:34:28.845Z,41.69
2023-05-20T13:35:50.378Z,41.51
2023-05-20T13:37:14.404Z,42.24
2023-05-20T13:38:59.610Z,42.10
2023-05-20T13:40:36.435Z,42.30
2023-05-20T13:42:21.929Z,41.54
2023-05-20T13:44:02.771Z,41.22
2023-05-20T13:45:36.514Z,41.27
2023-05-20T13:47:00.573Z,40.94
2023-05-20T13:48:33.835Z,41.34
2023-05-20T13:50:07.452Z,41.18
2023-05-20T13:51:52.916Z,40.18
2023-05-20T13:53:28.696Z,39.91
2023-05-20T13:55:02.272Z,39.29
2023-05-20T13:56:36.079Z,39.30
2023-05-20T13:58:09.360Z,38.46
2023-05-20T13:59:53.956Z,38.91
2023-05-20T14:01:35.571Z,36.89
2023-05-20T14:03:10.394Z,35.89
2023-05-20T14:04:56.949Z,35.90
2023-05-20T14:06:32.926Z,35.30
2023-05-20T14:07:59.455Z,35.07
2023-05-20T14:09:28.713Z,34.82
2023-05-20T14:10:52.293Z,35.34
2023-05-20T14:12:37.477Z,35.93
2023-05-20T14:14:06.338Z,36.17
2023-05-20T14:15:33.331Z,36.98
2023-05-20T14:17:18.589Z,36.80
2023-05-20T14:18:59.509Z,37.67
2023-05-20T14:20:33.588Z,37.56
2023-05-20T14:22:18.847Z,38.06
2023-05-20T14:23:52.204Z,38.87
2023-05-20T14:25:16.609Z,38.32
2023-05-20T14:26:45.997Z,38.09
2023-05-20T14:28:07.771Z,38.25
2023-05-20T14:29:29.982Z,37.78
2023-05-20T14:31:05.517Z,37.11
2023-05-20T14:32:51.388Z,37.08
2023-05-20T14:34:25.113Z,35.67
2023-05-20T14:35:51.406Z,35.10
2023-05-20T14:37:27.911Z,34.04
2023-05-20T14:38:59.483Z,34.12
2023-05-20T14:40:33.293Z,33.90
2023-05-20T14:41:55.276Z,33.15
2023-05-20T14:43:40.616Z,32.11
2023-05-20T14:45:06.912Z,32.45
2023-05-20T14:46:40.571Z,32.09
2023-05-20T14:48:23.356Z,31.96
2023-05-20T14:50:04.093Z,32.44
2023-05-20T14:51:58.946Z,31.85
2023-05-20T14:53:32.500Z,31.53
2023-05-20T14:55:08.291Z,32.42
2023-05-20T14:56:41.897Z,31.78
2023-05-20T14:58:15.647Z,32.58
2023-05-20T14:59:39.677Z,31.91
2023-05-20T15:01:15.391Z,32.52
2023-05-20T15:02:37.919Z,33.34
2023-05-20T15:04:02.248Z,33.29
2023-05-20T15:05:47.257Z,32.98
2023-05-20T15:07:30.320Z,32.55
2023-05-20T15:08:52.131Z,32.34
2023-05-20T15:10:26.137Z,32.23
2023-05-20T15:11:55.465Z,32.07
2023-05-20T15:13:28.890Z,32.10
2023-05-20T15:15:22.248Z,31.64
2023-05-20T15:16:58.108Z,31.68
2023-05-20T15:18:32.004Z,32.10
2023-05-20T15:20:13.004Z,31.99
2023-05-20T15:21:58.459Z,31.28
2023-05-20T15:23:34.529Z,31.19
2023-05-20T15:25:09.827Z,31.45
2023-05-20T15:27:04.937Z,30.65
2023-05-20T15:28:38.234Z,30.83
2023-05-20T15:30:11.604Z,31.40
2023-05-20T15:31:52.821Z,30.90
2023-05-20T15:33:25.270Z,30.74
2023-05-20T15:35:02.579Z,30.16
2023-05-20T15:36:24.929Z,30.07
2023-05-20T15:37:46.675Z,30.29
2023-05-20T15:39:22.863Z,30.22
2023-05-20T15:40:59.192Z,30.42
2023-05-20T15:42:23.631Z,30.47
2023-05-20T15:43:56.813Z,31.00
2023-05-20T15:45:30.656Z,31.37
2023-05-20T15:46:52.134Z,31.65
2023-05-20T15:48:26.823Z,31.52
2023-05-20T15:50:04.284Z,32.41
2023-05-20T15:51:37.898Z,33.14
2023-05-20T15:53:00.006Z,33.77
2023-05-20T15:54:21.908Z,34.13
2023-05-20T15:55:51.479Z,34.20
2023-05-20T15:57:32.726Z,34.48
2023-05-20T15:59:14.889Z,34.75
2023-05-20T16:00:39.444Z,35.41
2023-05-20T16:02:26.853Z,36.14
2023-05-20T16:04:10.041Z,36.88
2023-05-20T16:05:32.209Z,37.27
2023-05-20T16:06:56.021Z,37.72
2023-05-20T16:08:25.988Z,38.83
2023-05-20T16:09:57.633Z,38.54
2023-05-20T16:11:22.814Z,38.68
2023-05-20T16:12:49.287Z,39.27
2023-05-20T16:14:23.157Z,40.16
2023-05-20T16:15:46.968Z,40.01
2023-05-20T16:17:21.717Z,40.39
2023-05-20T16:18:52.952Z,40.39
2023-05-20T16:20:38.412Z,40.77
2023-05-20T16:22:20.060Z,41.20
2023-05-20T16:23:49.152Z,41.73
2023-05-20T16:25:15.161Z,41.64
2023-05-20T16:26:44.319Z,41.80
2023-05-20T16:28:25.315Z,41.84
2023-05-20T16:30:10.397Z,41.76
2023-05-20T16:31:46.314Z,42.41
2023-05-20T16:33:21.888Z,42.95
2023-05-20T16:34:57.746Z,43.05
2023-05-20T16:36:33.271Z,43.44
2023-05-20T16:38:08.839Z,43.92
2023-05-20T16:39:38.288Z,44.18
2023-05-20T16:41:11.546Z,44.45
2023-05-20T16:42:58.578Z,44.63
2023-05-20T16:44:39.386Z,45.19
2023-05-20T16:46:14.529Z,45.55
2023-05-20T16:47:36.967Z,45.49
2023-05-20T16:48:58.813Z,45.80
2023-05-20T16:50:22.927Z,45.88
2023-05-20T16:51:56.381Z,45.89
2023-05-20T16:53:25.359Z,46.32
2023-05-20T16:55:15.003Z,46.60
2023-05-20T16:56:50.879Z,47.06
2023-05-20T16:58:33.903Z,47.33
2023-05-20T16:59:58.430Z,47.68
2023-05-20T17:01:44.091Z,47.49
2023-05-20T17:03:18.086Z,47.91
2023-05-20T17:04:39.501Z,48.11
2023-05-20T17:06:03.594Z,48.24
2023-05-20T17:07:48.735Z,48.10
2023-05-20T17:09:18.057Z,48.66
2023-05-20T17:10:54.366Z,48.94
2023-05-20T17:12:28.316Z,49.32
2023-05-20T17:14:22.021Z,49.89
2023-05-20T17:15:51.055Z,50.61
2023-05-20T17:17:31.855Z,50.81
2023-05-20T17:18:56.227Z,51.19
2023-05-20T17:20:29.573Z,51.35
2023-05-20T17:21:50.920Z,51.34
2023-05-20T17:23:14.691Z,51.59
2023-05-20T17:24:41.282Z,51.89
2023-05-20T17:26:25.317Z,51.82
2023-05-20T17:28:19.960Z,52.05
2023-05-20T17:30:01.209Z,51.96
2023-05-20T17:31:23.278Z,52.54
2023-05-20T17:33:08.997Z,52.22
2023-05-20T17:34:33.288Z,52.44
2023-05-20T17:36:02.377Z,52.88
2023-05-20T17:37:24.393Z,52.85
2023-05-20T17:39:18.451Z,53.16
2023-05-20T17:40:53.974Z,53.59
2023-05-20T17:42:28.015Z,53.73
2023-05-20T17:44:03.502Z,54.13
2023-05-20T17:45:48.641Z,54.27
2023-05-20T17:47:21.620Z,54.52
2023-05-20T17:48:55.065Z,54.88
2023-05-20T17:50:35.844Z,54.79
2023-05-20T17:52:13.034Z,54.98
2023-05-20T17:53:58.620Z,55.15
2023-05-20T17:55:39.686Z,55.20
2023-05-20T17:57:22.567Z,55.33
2023-05-20T17:58:46.879Z,55.62
2023-05-20T18:00:11.040Z,55.59
2023-05-20T18:02:00.440Z,55.55
2023-05-20T18:03:46.051Z,55.90
2023-05-20T18:05:19.792Z,55.79
2023-05-20T18:07:04.762Z,55.89
2023-05-20T18:08:28.923Z,56.07
2023-05-20T18:10:10.770Z,56.19
2023-05-20T18:11:47.152Z,56.35
2023-05-20T18:13:22.746Z,56.56
2023-05-20T18:14:51.593Z,56.61
2023-05-20T18:16:27.492Z,56.80
2023-05-20T18:17:49.167Z,57.10
2023-05-20T18:19:29.071Z,57.03
2023-05-20T18:21:13.680Z,57.20
2023-05-20T18:22:58.882Z,57.44
2023-05-20T18:24:34.984Z,57.36
2023-05-20T18:25:59.096Z,57.54
2023-05-20T18:27:21.163Z,57.69
2023-05-20T18:28:50.472Z,57.71
2023-05-20T18:30:17.822Z,57.91
2023-05-20T18:31:42.590Z,57.92
2023-05-20T18:33:04.967Z,58.08
2023-05-20T18:34:29.675Z,58.21
2023-05-20T18:35:54.572Z,58.49
2023-05-20T18:37:35.501Z,58.66
2023-05-20T18:38:59.191Z,58.66
2023-05-20T18:40:21.309Z,58.87
2023-05-20T18:41:50.628Z,58.97
2023-05-20T18:43:19.660Z,59.16
2023-05-20T18:44:43.709Z,59.34
2023-05-20T18:46:05.716Z,59.55
2023-05-20T18:47:50.913Z,59.61
2023-05-20T18:49:13.193Z,59.73
2023-05-20T18:50:45.225Z,60.03
2023-05-20T18:52:21.138Z,60.00
2023-05-20T18:53:43.081Z,59.89
2023-05-20T18:55:18.943Z,60.07
2023-05-20T18:57:00.214Z,60.11
2023-05-20T18:58:24.193Z,60.30
2023-05-20T18:59:47.814Z,60.25
2023-05-20T19:01:33.598Z,60.43
2023-05-20T19:02:58.712Z,60.54
2023-05-20T19:04:30.318Z,60.75
2023-05-20T19:05:52.191Z,60.96
2023-05-20T19:07:37.637Z,61.13
2023-05-20T19:09:19.274Z,61.08
2023-05-20T19:10:43.489Z,61.27
2023-05-20T19:12:24.594Z,61.39
2023-05-20T19:13:58.366Z,61.42
2023-05-20T19:15:32.349Z,61.40
2023-05-20T19:17:04.421Z,61.62
2023-05-20T19:18:29.203Z,61.67
2023-05-20T19:20:03.859Z,61.75
2023-05-20T19:21:44.582Z,61.72
2023-05-20T19:23:10.947Z,62.01
2023-05-20T19:24:35.499Z,62.09
2023-05-20T19:26:02.234Z,62.29
2023-05-20T19:27:36.237Z,62.48
2023-05-20T19:29:16.529Z,62.65
2023-05-20T19:30:41.649Z,62.79
2023-05-20T19:32:14.877Z,62.95
2023-05-20T19:33:49.344Z,63.13
2023-05-20T19:35:23.265Z,62.97
2023-05-20T19:36:46.725Z,63.17
2023-05-20T19:38:23.653Z,63.30
2023-05-20T19:39:52.840Z,63.24
2023-05-20T19:41:14.977Z,63.47
2023-05-20T19:42:36.936Z,63.67
2023-05-20T19:44:12.811Z,63.66
2023-05-20T19:45:36.697Z,63.85
2023-05-20T19:47:10.689Z,64.02
2023-05-20T19:48:46.106Z,64.01
2023-05-20T19:50:10.374Z,64.25
2023-05-20T19:51:53.994Z,64.36
2023-05-20T19:53:29.218Z,64.33
2023-05-20T19:55:05.593Z,64.51
2023-05-20T19:56:30.087Z,64.53
2023-05-20T19:57:53.520Z,64.72
2023-05-20T19:59:38.827Z,64.68
2023-05-20T20:01:12.633Z,65.00
2023-05-20T20:02:59.214Z,64.98
2023-05-20T20:04:21.310Z,65.05
2023-05-20T20:05:57.048Z,65.23
2023-05-20T20:07:19.283Z,65.31
2023-05-20T20:09:12.227Z,65.34
2023-05-20T20:10:46.757Z,65.42
2023-05-20T20:12:20.343Z,65.45
2023-05-20T20:13:51.790Z,65.59
2023-05-20T20:15:32.968Z,65.77
2023-05-20T20:17:26.351Z,65.82
2023-05-20T20:19:07.364Z,65.89
2023-05-20T20:20:41.272Z,66.14
2023-05-20T20:22:14.643Z,66.27
2023-05-20T20:23:50.446Z,66.54
2023-05-20T20:25:27.382Z,66.57